UAL1549 TTPP-KFLL
Flight info
| Callsign | UAL1549 |
|---|---|
| Flight time | N/A |
| Altitude | 34000 |
| Route | DCT PERRY UG449 ANADA L452 HARBG Y421 HAGIT Y352 ZQA OLAHS3 |
| Aircraft | B738/M-SDE2E3FGHIRWXY/LB1 |
Departure
| Time | 2026-05-03 21:30 |
|---|---|
| Airport | Piarco International Airport (TTPP) |
Arrival
| Time | N/A |
|---|---|
| Airport | Fort Lauderdale Hollywood International Airport (KFLL) |
| Time | Latitude | Longitude | Altitude | Speed | Heading |
|---|---|---|---|---|---|
| 2026-05-03 20:52 | 10.60031 | -61.33825 | 48 ft | 0 kts | 251° |
| 2026-05-03 21:17 | 10.60032 | -61.33825 | 48 ft | 1 kts | 251° |
| 2026-05-03 21:17 | 10.60035 | -61.33814 | 46 ft | 2 kts | 250° |
| 2026-05-03 21:17 | 10.60042 | -61.33794 | 45 ft | 2 kts | 250° |
| 2026-05-03 21:17 | 10.60048 | -61.33778 | 45 ft | 2 kts | 243° |
| 2026-05-03 21:18 | 10.60058 | -61.33765 | 46 ft | 2 kts | 190° |
| 2026-05-03 21:18 | 10.60067 | -61.33765 | 47 ft | 1 kts | 157° |
| 2026-05-03 21:18 | 10.60066 | -61.33765 | 47 ft | 1 kts | 155° |
| 2026-05-03 21:19 | 10.60057 | -61.33756 | 47 ft | 3 kts | 133° |
| 2026-05-03 21:19 | 10.60041 | -61.33739 | 47 ft | 4 kts | 139° |
| 2026-05-03 21:19 | 10.60021 | -61.33735 | 48 ft | 0 kts | 179° |
| 2026-05-03 21:21 | 10.60014 | -61.33735 | 48 ft | 2 kts | 179° |
| 2026-05-03 21:21 | 10.59995 | -61.33734 | 48 ft | 4 kts | 179° |
| 2026-05-03 21:21 | 10.59971 | -61.33734 | 48 ft | 5 kts | 179° |
| 2026-05-03 21:21 | 10.59930 | -61.33734 | 48 ft | 7 kts | 181° |
| 2026-05-03 21:22 | 10.59878 | -61.33735 | 48 ft | 8 kts | 180° |
| 2026-05-03 21:22 | 10.59816 | -61.33735 | 48 ft | 10 kts | 179° |
| 2026-05-03 21:22 | 10.59748 | -61.33733 | 48 ft | 7 kts | 183° |
| 2026-05-03 21:22 | 10.59710 | -61.33769 | 48 ft | 9 kts | 253° |
| 2026-05-03 21:23 | 10.59706 | -61.33835 | 48 ft | 10 kts | 270° |
| 2026-05-03 21:23 | 10.59706 | -61.33913 | 49 ft | 12 kts | 269° |
| 2026-05-03 21:23 | 10.59706 | -61.34005 | 49 ft | 14 kts | 270° |
| 2026-05-03 21:23 | 10.59706 | -61.34109 | 48 ft | 16 kts | 270° |
| 2026-05-03 21:24 | 10.59706 | -61.34228 | 48 ft | 18 kts | 270° |
| 2026-05-03 21:24 | 10.59706 | -61.34359 | 48 ft | 19 kts | 270° |
| 2026-05-03 21:24 | 10.59705 | -61.34474 | 48 ft | 14 kts | 265° |
| 2026-05-03 21:24 | 10.59644 | -61.34527 | 48 ft | 0 kts | 182° |
| 2026-05-03 21:25 | 10.59639 | -61.34527 | 48 ft | 2 kts | 184° |
| 2026-05-03 21:25 | 10.59622 | -61.34528 | 48 ft | 4 kts | 181° |
| 2026-05-03 21:25 | 10.59590 | -61.34528 | 48 ft | 5 kts | 179° |
| 2026-05-03 21:25 | 10.59547 | -61.34527 | 48 ft | 7 kts | 179° |
| 2026-05-03 21:26 | 10.59495 | -61.34527 | 49 ft | 8 kts | 180° |
| 2026-05-03 21:26 | 10.59437 | -61.34533 | 49 ft | 9 kts | 204° |
| 2026-05-03 21:26 | 10.59411 | -61.34590 | 49 ft | 10 kts | 267° |
| 2026-05-03 21:26 | 10.59407 | -61.34666 | 49 ft | 12 kts | 259° |
| 2026-05-03 21:27 | 10.59384 | -61.34753 | 47 ft | 14 kts | 253° |
| 2026-05-03 21:27 | 10.59356 | -61.34852 | 47 ft | 15 kts | 257° |
| 2026-05-03 21:27 | 10.59351 | -61.34967 | 49 ft | 17 kts | 269° |
| 2026-05-03 21:27 | 10.59351 | -61.35095 | 48 ft | 19 kts | 269° |
| 2026-05-03 21:28 | 10.59365 | -61.35178 | 47 ft | 12 kts | 317° |
| 2026-05-03 21:28 | 10.59445 | -61.35192 | 47 ft | 12 kts | 6° |
| 2026-05-03 21:28 | 10.59514 | -61.35142 | 49 ft | 13 kts | 51° |
| 2026-05-03 21:28 | 10.59533 | -61.35080 | 48 ft | 0 kts | 89° |
| 2026-05-03 21:30 | 10.59534 | -61.35032 | 48 ft | 28 kts | 89° |
| 2026-05-03 21:30 | 10.59536 | -61.34543 | 48 ft | 108 kts | 89° |
| 2026-05-03 21:30 | 10.59529 | -61.33541 | 84 ft | 171 kts | 91° |
| 2026-05-03 21:30 | 10.59556 | -61.32261 | 736 ft | 193 kts | 89° |
| 2026-05-03 21:31 | 10.59565 | -61.30808 | 1253 ft | 217 kts | 88° |
| 2026-05-03 21:31 | 10.59551 | -61.29267 | 2077 ft | 219 kts | 89° |
| 2026-05-03 21:31 | 10.59549 | -61.27694 | 2885 ft | 225 kts | 89° |
| 2026-05-03 21:31 | 10.59931 | -61.26150 | 3606 ft | 235 kts | 57° |
| 2026-05-03 21:32 | 10.61239 | -61.25123 | 4359 ft | 246 kts | 20° |
| 2026-05-03 21:32 | 10.62969 | -61.25115 | 5135 ft | 258 kts | 343° |
| 2026-05-03 21:32 | 10.64441 | -61.26155 | 5858 ft | 266 kts | 307° |
| 2026-05-03 21:32 | 10.65170 | -61.27922 | 6198 ft | 285 kts | 273° |
| 2026-05-03 21:33 | 10.65156 | -61.30011 | 6445 ft | 309 kts | 274° |
| 2026-05-03 21:33 | 10.65898 | -61.32155 | 6597 ft | 339 kts | 304° |
| 2026-05-03 21:33 | 10.67685 | -61.33776 | 7035 ft | 351 kts | 334° |
| 2026-05-03 21:33 | 10.69896 | -61.34772 | 7789 ft | 351 kts | 339° |
| 2026-05-03 21:34 | 10.72164 | -61.35748 | 8424 ft | 359 kts | 338° |
| 2026-05-03 21:34 | 10.74481 | -61.36859 | 8689 ft | 376 kts | 335° |
| 2026-05-03 21:34 | 10.76833 | -61.38119 | 9201 ft | 383 kts | 333° |
| 2026-05-03 21:34 | 10.79157 | -61.39477 | 9810 ft | 387 kts | 331° |
| 2026-05-03 21:35 | 10.81466 | -61.40913 | 10396 ft | 390 kts | 329° |
| 2026-05-03 21:35 | 10.83767 | -61.42400 | 10952 ft | 393 kts | 329° |
| 2026-05-03 21:35 | 10.86074 | -61.43927 | 11483 ft | 397 kts | 328° |
| 2026-05-03 21:35 | 10.88363 | -61.45460 | 12016 ft | 400 kts | 328° |
| 2026-05-03 21:36 | 10.90688 | -61.47028 | 12565 ft | 403 kts | 328° |
| 2026-05-03 21:36 | 10.93034 | -61.48613 | 13102 ft | 406 kts | 328° |
| 2026-05-03 21:36 | 10.95395 | -61.50211 | 13576 ft | 410 kts | 329° |
| 2026-05-03 21:36 | 10.97785 | -61.51826 | 13999 ft | 414 kts | 328° |
| 2026-05-03 21:37 | 11.00186 | -61.53451 | 14510 ft | 414 kts | 328° |
| 2026-05-03 21:37 | 11.02597 | -61.55081 | 14976 ft | 417 kts | 328° |
| 2026-05-03 21:37 | 11.05033 | -61.56728 | 15376 ft | 421 kts | 328° |
| 2026-05-03 21:37 | 11.07481 | -61.58385 | 15787 ft | 424 kts | 328° |
| 2026-05-03 21:38 | 11.09942 | -61.60049 | 16252 ft | 425 kts | 328° |
| 2026-05-03 21:38 | 11.12382 | -61.61700 | 16705 ft | 427 kts | 328° |
| 2026-05-03 21:38 | 11.14865 | -61.63380 | 17108 ft | 430 kts | 329° |
| 2026-05-03 21:38 | 11.17369 | -61.65075 | 17483 ft | 434 kts | 328° |
| 2026-05-03 21:39 | 11.19892 | -61.66782 | 17889 ft | 436 kts | 328° |
| 2026-05-03 21:39 | 11.22423 | -61.68494 | 18305 ft | 438 kts | 328° |
| 2026-05-03 21:39 | 11.24959 | -61.70211 | 18695 ft | 439 kts | 328° |
| 2026-05-03 21:39 | 11.27517 | -61.71942 | 19024 ft | 441 kts | 328° |
| 2026-05-03 21:40 | 11.30080 | -61.73678 | 19337 ft | 444 kts | 328° |
| 2026-05-03 21:40 | 11.32654 | -61.75424 | 19735 ft | 444 kts | 328° |
| 2026-05-03 21:40 | 11.35205 | -61.77154 | 20101 ft | 445 kts | 328° |
| 2026-05-03 21:40 | 11.37787 | -61.78904 | 20446 ft | 447 kts | 327° |
| 2026-05-03 21:41 | 11.40384 | -61.80664 | 20762 ft | 449 kts | 328° |
| 2026-05-03 21:41 | 11.43006 | -61.82442 | 20882 ft | 456 kts | 327° |
| 2026-05-03 21:41 | 11.45662 | -61.84242 | 21043 ft | 461 kts | 327° |
| 2026-05-03 21:41 | 11.48338 | -61.86058 | 21307 ft | 463 kts | 327° |
| 2026-05-03 21:42 | 11.51037 | -61.87890 | 21534 ft | 465 kts | 327° |
| 2026-05-03 21:42 | 11.53740 | -61.89725 | 21802 ft | 467 kts | 327° |
| 2026-05-03 21:42 | 11.56440 | -61.91559 | 22096 ft | 467 kts | 327° |
| 2026-05-03 21:42 | 11.59116 | -61.93376 | 22370 ft | 468 kts | 327° |
| 2026-05-03 21:43 | 11.61833 | -61.95222 | 22626 ft | 469 kts | 327° |
| 2026-05-03 21:43 | 11.64550 | -61.97069 | 22878 ft | 470 kts | 327° |
| 2026-05-03 21:43 | 11.67279 | -61.98924 | 23113 ft | 472 kts | 327° |
| 2026-05-03 21:43 | 11.70015 | -62.00783 | 23336 ft | 473 kts | 327° |
| 2026-05-03 21:44 | 11.72759 | -62.02649 | 23573 ft | 474 kts | 326° |
| 2026-05-03 21:44 | 11.75506 | -62.04517 | 23788 ft | 474 kts | 326° |
| 2026-05-03 21:44 | 11.78250 | -62.06384 | 24004 ft | 474 kts | 326° |
| 2026-05-03 21:44 | 11.81000 | -62.08255 | 24188 ft | 475 kts | 326° |
| 2026-05-03 21:45 | 11.83757 | -62.10132 | 24361 ft | 476 kts | 326° |
| 2026-05-03 21:45 | 11.86514 | -62.12008 | 24596 ft | 475 kts | 326° |
| 2026-05-03 21:45 | 11.89227 | -62.13856 | 24821 ft | 475 kts | 326° |
| 2026-05-03 21:45 | 11.91987 | -62.15736 | 24951 ft | 477 kts | 326° |
| 2026-05-03 21:46 | 11.94784 | -62.17641 | 25062 ft | 479 kts | 326° |
| 2026-05-03 21:46 | 11.97510 | -62.19498 | 25348 ft | 477 kts | 325° |
| 2026-05-03 21:46 | 12.00258 | -62.21372 | 25589 ft | 476 kts | 326° |
| 2026-05-03 21:46 | 12.03056 | -62.23279 | 25774 ft | 476 kts | 326° |
| 2026-05-03 21:47 | 12.05805 | -62.25153 | 25903 ft | 478 kts | 325° |
| 2026-05-03 21:47 | 12.08548 | -62.27024 | 26060 ft | 479 kts | 326° |
| 2026-05-03 21:47 | 12.11320 | -62.28915 | 26283 ft | 477 kts | 326° |
| 2026-05-03 21:47 | 12.14091 | -62.30807 | 26427 ft | 478 kts | 325° |
| 2026-05-03 21:48 | 12.16862 | -62.32699 | 26546 ft | 480 kts | 326° |
| 2026-05-03 21:48 | 12.18703 | -62.33955 | 26790 ft | 476 kts | 325° |
| 2026-05-03 21:48 | 12.21453 | -62.35832 | 27143 ft | 473 kts | 325° |
| 2026-05-03 21:48 | 12.24192 | -62.37703 | 27337 ft | 474 kts | 325° |
| 2026-05-03 21:49 | 12.26935 | -62.39577 | 27463 ft | 475 kts | 325° |
| 2026-05-03 21:49 | 12.30589 | -62.42075 | 27788 ft | 474 kts | 325° |
| 2026-05-03 21:49 | 12.32432 | -62.43334 | 28069 ft | 471 kts | 325° |
| 2026-05-03 21:49 | 12.35155 | -62.45196 | 28342 ft | 470 kts | 325° |
| 2026-05-03 21:50 | 12.37882 | -62.47062 | 28471 ft | 472 kts | 325° |
| 2026-05-03 21:50 | 12.40583 | -62.48910 | 28607 ft | 473 kts | 325° |
| 2026-05-03 21:50 | 12.43311 | -62.50777 | 28992 ft | 470 kts | 325° |
| 2026-05-03 21:50 | 12.46020 | -62.52631 | 29307 ft | 468 kts | 325° |
| 2026-05-03 21:51 | 12.48728 | -62.54485 | 29527 ft | 468 kts | 325° |
| 2026-05-03 21:51 | 12.51439 | -62.56341 | 29724 ft | 469 kts | 325° |
| 2026-05-03 21:51 | 12.54146 | -62.58196 | 29997 ft | 467 kts | 325° |
| 2026-05-03 21:51 | 12.56842 | -62.60043 | 30271 ft | 466 kts | 325° |
| 2026-05-03 21:52 | 12.59538 | -62.61890 | 30519 ft | 465 kts | 325° |
| 2026-05-03 21:52 | 12.62227 | -62.63734 | 30730 ft | 464 kts | 325° |
| 2026-05-03 21:52 | 12.64913 | -62.65575 | 30946 ft | 464 kts | 325° |
| 2026-05-03 21:52 | 12.67567 | -62.67396 | 31190 ft | 463 kts | 325° |
| 2026-05-03 21:53 | 12.70238 | -62.69228 | 31423 ft | 463 kts | 325° |
| 2026-05-03 21:53 | 12.72914 | -62.71064 | 31596 ft | 463 kts | 325° |
| 2026-05-03 21:53 | 12.75595 | -62.72905 | 31823 ft | 463 kts | 325° |
| 2026-05-03 21:53 | 12.78266 | -62.74739 | 32097 ft | 461 kts | 326° |
| 2026-05-03 21:54 | 12.80926 | -62.76566 | 32380 ft | 460 kts | 326° |
| 2026-05-03 21:54 | 12.83581 | -62.78389 | 32625 ft | 459 kts | 326° |
| 2026-05-03 21:54 | 12.86231 | -62.80210 | 32858 ft | 459 kts | 326° |
| 2026-05-03 21:54 | 12.88882 | -62.82033 | 33111 ft | 458 kts | 326° |
| 2026-05-03 21:55 | 12.91526 | -62.83851 | 33378 ft | 457 kts | 326° |
| 2026-05-03 21:55 | 12.94165 | -62.85665 | 33642 ft | 456 kts | 326° |
| 2026-05-03 21:55 | 12.96797 | -62.87476 | 33902 ft | 455 kts | 326° |
| 2026-05-03 21:55 | 12.99390 | -62.89259 | 34025 ft | 456 kts | 326° |
| 2026-05-03 21:56 | 13.04669 | -62.92894 | 34019 ft | 456 kts | 326° |
| 2026-05-03 21:56 | 13.09931 | -62.96517 | 34023 ft | 454 kts | 326° |
| 2026-05-03 21:57 | 13.15164 | -63.00123 | 34025 ft | 452 kts | 326° |
| 2026-05-03 21:57 | 13.20385 | -63.03724 | 34025 ft | 451 kts | 326° |
| 2026-05-03 21:58 | 13.25609 | -63.07318 | 34025 ft | 451 kts | 327° |
| 2026-05-03 21:58 | 13.30945 | -63.10663 | 34027 ft | 451 kts | 329° |
| 2026-05-03 21:59 | 13.36363 | -63.13910 | 34024 ft | 452 kts | 329° |
| 2026-05-03 21:59 | 13.41820 | -63.17202 | 34028 ft | 454 kts | 329° |
| 2026-05-03 22:00 | 13.47270 | -63.20520 | 34033 ft | 455 kts | 329° |
| 2026-05-03 22:00 | 13.52696 | -63.23837 | 34032 ft | 457 kts | 329° |
| 2026-05-03 22:01 | 13.58176 | -63.27190 | 34028 ft | 459 kts | 329° |
| 2026-05-03 22:01 | 13.63673 | -63.30554 | 34029 ft | 459 kts | 329° |
| 2026-05-03 22:02 | 13.69160 | -63.33913 | 33968 ft | 461 kts | 329° |
| 2026-05-03 22:02 | 13.74660 | -63.37282 | 34021 ft | 458 kts | 329° |
| 2026-05-03 22:03 | 13.80102 | -63.40617 | 34032 ft | 457 kts | 329° |
| 2026-05-03 22:03 | 13.85565 | -63.43968 | 34040 ft | 456 kts | 329° |
| 2026-05-03 22:04 | 13.90989 | -63.47295 | 34031 ft | 456 kts | 329° |
| 2026-05-03 22:04 | 13.96439 | -63.50642 | 34039 ft | 456 kts | 329° |
| 2026-05-03 22:05 | 14.01894 | -63.53992 | 34034 ft | 456 kts | 329° |
| 2026-05-03 22:05 | 14.07355 | -63.57349 | 34035 ft | 457 kts | 329° |
| 2026-05-03 22:06 | 14.12822 | -63.60712 | 34038 ft | 458 kts | 329° |
| 2026-05-03 22:06 | 14.18263 | -63.64059 | 34029 ft | 459 kts | 329° |
| 2026-05-03 22:07 | 14.23754 | -63.67440 | 34042 ft | 459 kts | 329° |
| 2026-05-03 22:07 | 14.29269 | -63.70840 | 34034 ft | 460 kts | 329° |
| 2026-05-03 22:08 | 14.34730 | -63.74208 | 34041 ft | 460 kts | 329° |
| 2026-05-03 22:08 | 14.40223 | -63.77598 | 34031 ft | 460 kts | 329° |
| 2026-05-03 22:09 | 14.45713 | -63.80989 | 34044 ft | 460 kts | 329° |
| 2026-05-03 22:10 | 14.53968 | -63.86090 | 34040 ft | 461 kts | 329° |
| 2026-05-03 22:10 | 14.59469 | -63.89492 | 34038 ft | 461 kts | 329° |
| 2026-05-03 22:11 | 14.64978 | -63.92901 | 34046 ft | 460 kts | 329° |
| 2026-05-03 22:11 | 14.70474 | -63.96304 | 34041 ft | 460 kts | 329° |
| 2026-05-03 22:12 | 14.75939 | -63.99691 | 34050 ft | 460 kts | 329° |
| 2026-05-03 22:12 | 14.81440 | -64.03101 | 34036 ft | 461 kts | 329° |
| 2026-05-03 22:13 | 14.86910 | -64.06494 | 34041 ft | 460 kts | 329° |
| 2026-05-03 22:13 | 14.92412 | -64.09909 | 34040 ft | 461 kts | 329° |
| 2026-05-03 22:14 | 14.97909 | -64.13324 | 34036 ft | 461 kts | 329° |
| 2026-05-03 22:14 | 15.03217 | -64.17081 | 34054 ft | 462 kts | 322° |
| 2026-05-03 22:15 | 15.08207 | -64.21273 | 34041 ft | 462 kts | 321° |
| 2026-05-03 22:15 | 15.13145 | -64.25461 | 34047 ft | 462 kts | 321° |
| 2026-05-03 22:16 | 15.18157 | -64.29653 | 34049 ft | 463 kts | 322° |
| 2026-05-03 22:16 | 15.23190 | -64.33830 | 34050 ft | 463 kts | 322° |
| 2026-05-03 22:17 | 15.28226 | -64.38004 | 34047 ft | 464 kts | 322° |
| 2026-05-03 22:17 | 15.33258 | -64.42180 | 34042 ft | 464 kts | 322° |
| 2026-05-03 22:18 | 15.38293 | -64.46362 | 34045 ft | 464 kts | 322° |
| 2026-05-03 22:18 | 15.43329 | -64.50549 | 34057 ft | 463 kts | 321° |
| 2026-05-03 22:19 | 15.48328 | -64.54708 | 34049 ft | 464 kts | 322° |
| 2026-05-03 22:19 | 15.53372 | -64.58906 | 34050 ft | 464 kts | 322° |
| 2026-05-03 22:20 | 15.58408 | -64.63101 | 34046 ft | 464 kts | 322° |
| 2026-05-03 22:20 | 15.63449 | -64.67302 | 34055 ft | 465 kts | 322° |
| 2026-05-03 22:21 | 15.68501 | -64.71515 | 34051 ft | 465 kts | 321° |
| 2026-05-03 22:21 | 15.73546 | -64.75725 | 34047 ft | 465 kts | 322° |
| 2026-05-03 22:22 | 15.78578 | -64.79927 | 34063 ft | 464 kts | 322° |
| 2026-05-03 22:22 | 15.83592 | -64.84117 | 34061 ft | 465 kts | 322° |
| 2026-05-03 22:23 | 15.88627 | -64.88328 | 34061 ft | 465 kts | 321° |
| 2026-05-03 22:23 | 15.93666 | -64.92544 | 34056 ft | 465 kts | 322° |
| 2026-05-03 22:24 | 15.98685 | -64.96747 | 34061 ft | 465 kts | 321° |
| 2026-05-03 22:24 | 16.03735 | -65.00979 | 34054 ft | 466 kts | 322° |
| 2026-05-03 22:25 | 16.08797 | -65.05223 | 34052 ft | 466 kts | 322° |
| 2026-05-03 22:25 | 16.13837 | -65.09449 | 34063 ft | 466 kts | 322° |
| 2026-05-03 22:26 | 16.18846 | -65.13653 | 34059 ft | 466 kts | 321° |
| 2026-05-03 22:26 | 16.23901 | -65.17899 | 34069 ft | 466 kts | 322° |
| 2026-05-03 22:27 | 16.28962 | -65.22154 | 34062 ft | 466 kts | 321° |
| 2026-05-03 22:27 | 16.34001 | -65.26394 | 34068 ft | 467 kts | 321° |
| 2026-05-03 22:28 | 16.39044 | -65.30639 | 34055 ft | 467 kts | 321° |
| 2026-05-03 22:28 | 16.44080 | -65.34882 | 34060 ft | 467 kts | 321° |
| 2026-05-03 22:29 | 16.49131 | -65.39141 | 34070 ft | 467 kts | 322° |
| 2026-05-03 22:29 | 16.54208 | -65.43425 | 34060 ft | 468 kts | 321° |
| 2026-05-03 22:30 | 16.59257 | -65.47687 | 34070 ft | 468 kts | 321° |
| 2026-05-03 22:30 | 16.64303 | -65.51947 | 34063 ft | 469 kts | 321° |
| 2026-05-03 22:31 | 16.69378 | -65.56234 | 34070 ft | 469 kts | 321° |
| 2026-05-03 22:31 | 16.74435 | -65.60512 | 34063 ft | 469 kts | 321° |
| 2026-05-03 22:32 | 16.79525 | -65.64820 | 34055 ft | 469 kts | 321° |
| 2026-05-03 22:32 | 16.84569 | -65.69093 | 34072 ft | 469 kts | 321° |
| 2026-05-03 22:33 | 16.89635 | -65.73387 | 34065 ft | 469 kts | 321° |
| 2026-05-03 22:33 | 16.94686 | -65.77672 | 34068 ft | 469 kts | 321° |
| 2026-05-03 22:34 | 16.99765 | -65.81983 | 34065 ft | 469 kts | 321° |
| 2026-05-03 22:34 | 17.04830 | -65.86285 | 34070 ft | 469 kts | 321° |
| 2026-05-03 22:35 | 17.09899 | -65.90595 | 34062 ft | 470 kts | 321° |
| 2026-05-03 22:35 | 17.14955 | -65.94896 | 34057 ft | 470 kts | 321° |
| 2026-05-03 22:36 | 17.20014 | -65.99203 | 34074 ft | 469 kts | 321° |
| 2026-05-03 22:36 | 17.25083 | -66.03521 | 34063 ft | 470 kts | 321° |
| 2026-05-03 22:37 | 17.29293 | -66.07110 | 34070 ft | 470 kts | 321° |
| 2026-05-03 22:37 | 17.34364 | -66.11436 | 34065 ft | 470 kts | 321° |
| 2026-05-03 22:38 | 17.39434 | -66.15765 | 34070 ft | 469 kts | 321° |
| 2026-05-03 22:38 | 17.44505 | -66.20097 | 34063 ft | 470 kts | 321° |
| 2026-05-03 22:39 | 17.49543 | -66.24404 | 34067 ft | 470 kts | 321° |
| 2026-05-03 22:39 | 17.54610 | -66.28739 | 34074 ft | 469 kts | 321° |
| 2026-05-03 22:40 | 17.59671 | -66.33074 | 34070 ft | 469 kts | 321° |
| 2026-05-03 22:40 | 17.64732 | -66.37410 | 34076 ft | 469 kts | 320° |
| 2026-05-03 22:41 | 17.69791 | -66.41748 | 34068 ft | 469 kts | 320° |
| 2026-05-03 22:41 | 17.74826 | -66.46069 | 34075 ft | 469 kts | 320° |
| 2026-05-03 22:42 | 17.79880 | -66.50410 | 34074 ft | 469 kts | 320° |
| 2026-05-03 22:42 | 17.84932 | -66.54751 | 34079 ft | 469 kts | 320° |
| 2026-05-03 22:43 | 17.89957 | -66.59074 | 34077 ft | 469 kts | 320° |
| 2026-05-03 22:43 | 17.95006 | -66.63420 | 34069 ft | 469 kts | 320° |
| 2026-05-03 22:44 | 18.00050 | -66.67765 | 34080 ft | 468 kts | 320° |
| 2026-05-03 22:44 | 18.05088 | -66.72109 | 34072 ft | 469 kts | 320° |
| 2026-05-03 22:45 | 18.10129 | -66.76458 | 34083 ft | 468 kts | 320° |
| 2026-05-03 22:45 | 18.15166 | -66.80807 | 34078 ft | 468 kts | 320° |
| 2026-05-03 22:46 | 18.20205 | -66.85161 | 34083 ft | 468 kts | 320° |
| 2026-05-03 22:46 | 18.25203 | -66.89484 | 34074 ft | 468 kts | 320° |
| 2026-05-03 22:47 | 18.30246 | -66.93848 | 34079 ft | 468 kts | 320° |
| 2026-05-03 22:47 | 18.35288 | -66.98215 | 34085 ft | 469 kts | 320° |
| 2026-05-03 22:48 | 18.40334 | -67.02590 | 34078 ft | 470 kts | 320° |
| 2026-05-03 22:48 | 18.45346 | -67.06938 | 34080 ft | 470 kts | 320° |
| 2026-05-03 22:49 | 18.50313 | -67.11421 | 34074 ft | 469 kts | 313° |
| 2026-05-03 22:49 | 18.54433 | -67.16741 | 34077 ft | 468 kts | 307° |
| 2026-05-03 22:50 | 18.58431 | -67.22162 | 34080 ft | 468 kts | 307° |
| 2026-05-03 22:50 | 18.62471 | -67.27582 | 34075 ft | 468 kts | 307° |
| 2026-05-03 22:51 | 18.66520 | -67.32970 | 34076 ft | 468 kts | 308° |
| 2026-05-03 22:51 | 18.70546 | -67.38319 | 34082 ft | 468 kts | 307° |
| 2026-05-03 22:52 | 18.74592 | -67.43699 | 34078 ft | 468 kts | 307° |
| 2026-05-03 22:52 | 18.78643 | -67.49093 | 34071 ft | 468 kts | 307° |
| 2026-05-03 22:53 | 18.82677 | -67.54471 | 34073 ft | 467 kts | 307° |
| 2026-05-03 22:53 | 18.86708 | -67.59849 | 34073 ft | 467 kts | 307° |
| 2026-05-03 22:54 | 18.90733 | -67.65225 | 34075 ft | 466 kts | 307° |
| 2026-05-03 22:54 | 18.94735 | -67.70573 | 34075 ft | 466 kts | 307° |
| 2026-05-03 22:55 | 18.98755 | -67.75951 | 34079 ft | 466 kts | 307° |
| 2026-05-03 22:55 | 19.02781 | -67.81326 | 34075 ft | 466 kts | 309° |
| 2026-05-03 22:56 | 19.07427 | -67.86127 | 34077 ft | 467 kts | 317° |
| 2026-05-03 22:56 | 19.12304 | -67.90661 | 34083 ft | 467 kts | 317° |
| 2026-05-03 22:57 | 19.17211 | -67.95169 | 34075 ft | 467 kts | 318° |
| 2026-05-03 22:57 | 19.22094 | -67.99638 | 34081 ft | 467 kts | 318° |
| 2026-05-03 22:58 | 19.27017 | -68.04137 | 34075 ft | 467 kts | 318° |
| 2026-05-03 22:58 | 19.31693 | -68.08885 | 34076 ft | 465 kts | 308° |
| 2026-05-03 22:59 | 19.35557 | -68.14376 | 34075 ft | 464 kts | 304° |
| 2026-05-03 22:59 | 19.39270 | -68.19925 | 34077 ft | 464 kts | 304° |
| 2026-05-03 23:00 | 19.42986 | -68.25518 | 34079 ft | 464 kts | 304° |
| 2026-05-03 23:00 | 19.46294 | -68.31377 | 34086 ft | 463 kts | 296° |
| 2026-05-03 23:01 | 19.49171 | -68.37485 | 34075 ft | 463 kts | 295° |
| 2026-05-03 23:01 | 19.52005 | -68.43624 | 34073 ft | 463 kts | 295° |
| 2026-05-03 23:02 | 19.54829 | -68.49751 | 34068 ft | 463 kts | 296° |
| 2026-05-03 23:02 | 19.58093 | -68.55642 | 34072 ft | 463 kts | 303° |
| 2026-05-03 23:03 | 19.61920 | -68.61149 | 34068 ft | 463 kts | 307° |
| 2026-05-03 23:03 | 19.65921 | -68.66510 | 34072 ft | 463 kts | 307° |
| 2026-05-03 23:04 | 19.69911 | -68.71865 | 34067 ft | 462 kts | 307° |
| 2026-05-03 23:04 | 19.73850 | -68.77205 | 34062 ft | 462 kts | 307° |
| 2026-05-03 23:05 | 19.77808 | -68.82594 | 34072 ft | 462 kts | 307° |
| 2026-05-03 23:05 | 19.81759 | -68.87978 | 34066 ft | 462 kts | 307° |
| 2026-05-03 23:06 | 19.85704 | -68.93355 | 34068 ft | 461 kts | 307° |
| 2026-05-03 23:06 | 19.89773 | -68.98567 | 34071 ft | 461 kts | 310° |
| 2026-05-03 23:07 | 19.94063 | -69.03643 | 34065 ft | 461 kts | 311° |
| 2026-05-03 23:07 | 19.98356 | -69.08703 | 34063 ft | 461 kts | 310° |
| 2026-05-03 23:08 | 20.02625 | -69.13789 | 34063 ft | 461 kts | 310° |
| 2026-05-03 23:08 | 20.06876 | -69.18889 | 34066 ft | 460 kts | 310° |
| 2026-05-03 23:09 | 20.11121 | -69.23991 | 34066 ft | 460 kts | 310° |
| 2026-05-03 23:09 | 20.15370 | -69.29104 | 34065 ft | 460 kts | 310° |
| 2026-05-03 23:10 | 20.19581 | -69.34174 | 34070 ft | 460 kts | 310° |
| 2026-05-03 23:10 | 20.23822 | -69.39283 | 34072 ft | 460 kts | 310° |
| 2026-05-03 23:11 | 20.28057 | -69.44391 | 34072 ft | 460 kts | 310° |
| 2026-05-03 23:11 | 20.32289 | -69.49497 | 34067 ft | 460 kts | 310° |
| 2026-05-03 23:12 | 20.36527 | -69.54618 | 34064 ft | 460 kts | 310° |
| 2026-05-03 23:12 | 20.40759 | -69.59735 | 34064 ft | 460 kts | 310° |
| 2026-05-03 23:13 | 20.44989 | -69.64854 | 34065 ft | 460 kts | 310° |
| 2026-05-03 23:13 | 20.49211 | -69.69968 | 34066 ft | 459 kts | 310° |
| 2026-05-03 23:14 | 20.53408 | -69.75057 | 34065 ft | 459 kts | 310° |
| 2026-05-03 23:14 | 20.57634 | -69.80185 | 34075 ft | 459 kts | 310° |
| 2026-05-03 23:15 | 20.61872 | -69.85333 | 34068 ft | 460 kts | 310° |
| 2026-05-03 23:15 | 20.66084 | -69.90454 | 34069 ft | 460 kts | 310° |
| 2026-05-03 23:16 | 20.70299 | -69.95583 | 34061 ft | 460 kts | 310° |
| 2026-05-03 23:16 | 20.74488 | -70.00685 | 34063 ft | 460 kts | 310° |
| 2026-05-03 23:17 | 20.78710 | -70.05832 | 34062 ft | 459 kts | 310° |
| 2026-05-03 23:17 | 20.82923 | -70.10972 | 34065 ft | 459 kts | 310° |
| 2026-05-03 23:18 | 20.87123 | -70.16101 | 34078 ft | 459 kts | 310° |
| 2026-05-03 23:18 | 20.91330 | -70.21244 | 34073 ft | 459 kts | 310° |
| 2026-05-03 23:19 | 20.95541 | -70.26397 | 34063 ft | 459 kts | 310° |
| 2026-05-03 23:19 | 20.99721 | -70.31516 | 34064 ft | 460 kts | 310° |
| 2026-05-03 23:20 | 21.03928 | -70.36674 | 34071 ft | 460 kts | 310° |
| 2026-05-03 23:20 | 21.08133 | -70.41833 | 34055 ft | 460 kts | 310° |
| 2026-05-03 23:21 | 21.12330 | -70.46988 | 34066 ft | 460 kts | 310° |
| 2026-05-03 23:21 | 21.16532 | -70.52154 | 34066 ft | 460 kts | 310° |
| 2026-05-03 23:22 | 21.22838 | -70.59915 | 34073 ft | 460 kts | 310° |
| 2026-05-03 23:22 | 21.27041 | -70.65094 | 34058 ft | 461 kts | 310° |
| 2026-05-03 23:23 | 21.31248 | -70.70283 | 34082 ft | 461 kts | 309° |
| 2026-05-03 23:23 | 21.35454 | -70.75476 | 34064 ft | 461 kts | 309° |
| 2026-05-03 23:24 | 21.38947 | -70.79793 | 34070 ft | 461 kts | 309° |
| 2026-05-03 23:24 | 21.43145 | -70.84985 | 34067 ft | 461 kts | 309° |
| 2026-05-03 23:25 | 21.48029 | -70.91032 | 34071 ft | 460 kts | 309° |
| 2026-05-03 23:25 | 21.51546 | -70.95391 | 34072 ft | 460 kts | 309° |
| 2026-05-03 23:26 | 21.55736 | -71.00588 | 34073 ft | 460 kts | 309° |
| 2026-05-03 23:26 | 21.59592 | -71.06004 | 34081 ft | 458 kts | 301° |
| 2026-05-03 23:27 | 21.62901 | -71.11870 | 34080 ft | 458 kts | 300° |
| 2026-05-03 23:27 | 21.66178 | -71.17761 | 34070 ft | 458 kts | 300° |
| 2026-05-03 23:28 | 21.69469 | -71.23604 | 34084 ft | 458 kts | 300° |
| 2026-05-03 23:28 | 21.72782 | -71.29439 | 34072 ft | 458 kts | 300° |
| 2026-05-03 23:29 | 21.76109 | -71.35288 | 34075 ft | 458 kts | 300° |
| 2026-05-03 23:29 | 21.79431 | -71.41133 | 34080 ft | 458 kts | 300° |
| 2026-05-03 23:30 | 21.82764 | -71.47009 | 34078 ft | 458 kts | 300° |
| 2026-05-03 23:30 | 21.86052 | -71.52812 | 34077 ft | 457 kts | 300° |
| 2026-05-03 23:31 | 21.89361 | -71.58658 | 34081 ft | 457 kts | 300° |
| 2026-05-03 23:31 | 21.92688 | -71.64542 | 34080 ft | 457 kts | 300° |
| 2026-05-03 23:32 | 21.95986 | -71.70381 | 34075 ft | 457 kts | 300° |
| 2026-05-03 23:32 | 21.99282 | -71.76224 | 34079 ft | 457 kts | 300° |
| 2026-05-03 23:33 | 22.02579 | -71.82075 | 34078 ft | 457 kts | 300° |
| 2026-05-03 23:33 | 22.05871 | -71.87923 | 34078 ft | 457 kts | 300° |
| 2026-05-03 23:34 | 22.09162 | -71.93774 | 34094 ft | 457 kts | 299° |
| 2026-05-03 23:34 | 22.12458 | -71.99643 | 34082 ft | 456 kts | 299° |
| 2026-05-03 23:35 | 22.15745 | -72.05501 | 34085 ft | 456 kts | 299° |
| 2026-05-03 23:35 | 22.19027 | -72.11357 | 34085 ft | 456 kts | 299° |
| 2026-05-03 23:36 | 22.22304 | -72.17210 | 34079 ft | 456 kts | 299° |
| 2026-05-03 23:36 | 22.25584 | -72.23076 | 34085 ft | 456 kts | 299° |
| 2026-05-03 23:37 | 22.28859 | -72.28940 | 34086 ft | 455 kts | 298° |
| 2026-05-03 23:37 | 22.32107 | -72.34761 | 34082 ft | 455 kts | 298° |
| 2026-05-03 23:38 | 22.35372 | -72.40619 | 34082 ft | 455 kts | 298° |
| 2026-05-03 23:38 | 22.38632 | -72.46474 | 34082 ft | 455 kts | 298° |
| 2026-05-03 23:39 | 22.41895 | -72.52342 | 34084 ft | 455 kts | 298° |
| 2026-05-03 23:39 | 22.45153 | -72.58206 | 34085 ft | 455 kts | 298° |
| 2026-05-03 23:40 | 22.48407 | -72.64070 | 34097 ft | 454 kts | 298° |
| 2026-05-03 23:40 | 22.51659 | -72.69937 | 34082 ft | 454 kts | 298° |
| 2026-05-03 23:41 | 22.54903 | -72.75797 | 34083 ft | 453 kts | 298° |
| 2026-05-03 23:41 | 22.58114 | -72.81604 | 34082 ft | 453 kts | 298° |
| 2026-05-03 23:42 | 22.61353 | -72.87468 | 34083 ft | 452 kts | 298° |
| 2026-05-03 23:42 | 22.64576 | -72.93309 | 34087 ft | 452 kts | 298° |
| 2026-05-03 23:43 | 22.67800 | -72.99158 | 34091 ft | 451 kts | 297° |
| 2026-05-03 23:43 | 22.71016 | -73.04999 | 34082 ft | 451 kts | 297° |
| 2026-05-03 23:44 | 22.74203 | -73.10796 | 34085 ft | 450 kts | 297° |
| 2026-05-03 23:44 | 22.77409 | -73.16632 | 34084 ft | 450 kts | 297° |
| 2026-05-03 23:45 | 22.80611 | -73.22468 | 34085 ft | 449 kts | 297° |
| 2026-05-03 23:45 | 22.83801 | -73.28290 | 34084 ft | 449 kts | 297° |
| 2026-05-03 23:46 | 22.86992 | -73.34117 | 34098 ft | 448 kts | 297° |
| 2026-05-03 23:46 | 22.90168 | -73.39927 | 34096 ft | 447 kts | 297° |
| 2026-05-03 23:47 | 22.93331 | -73.45717 | 34081 ft | 446 kts | 297° |
| 2026-05-03 23:47 | 22.96468 | -73.51467 | 34079 ft | 445 kts | 297° |
| 2026-05-03 23:48 | 22.99622 | -73.57255 | 34086 ft | 445 kts | 297° |
| 2026-05-03 23:48 | 23.02759 | -73.63019 | 34089 ft | 444 kts | 297° |
| 2026-05-03 23:49 | 23.05899 | -73.68792 | 34088 ft | 444 kts | 297° |
| 2026-05-03 23:49 | 23.09032 | -73.74561 | 34081 ft | 443 kts | 297° |
| 2026-05-03 23:50 | 23.11636 | -73.79361 | 34084 ft | 443 kts | 297° |
| 2026-05-03 23:50 | 23.15296 | -73.86116 | 34087 ft | 443 kts | 296° |
| 2026-05-03 23:51 | 23.18419 | -73.91886 | 34090 ft | 443 kts | 296° |
| 2026-05-03 23:51 | 23.21544 | -73.97666 | 34087 ft | 443 kts | 296° |
| 2026-05-03 23:52 | 23.24645 | -74.03408 | 34109 ft | 443 kts | 296° |
| 2026-05-03 23:52 | 23.27767 | -74.09197 | 34097 ft | 443 kts | 296° |
| 2026-05-03 23:53 | 23.30885 | -74.14982 | 34084 ft | 443 kts | 296° |
| 2026-05-03 23:53 | 23.33997 | -74.20766 | 34085 ft | 443 kts | 296° |
| 2026-05-03 23:54 | 23.37111 | -74.26559 | 34098 ft | 442 kts | 296° |
| 2026-05-03 23:54 | 23.40198 | -74.32308 | 34086 ft | 442 kts | 296° |
| 2026-05-03 23:55 | 23.43302 | -74.38096 | 34094 ft | 442 kts | 296° |
| 2026-05-03 23:55 | 23.46403 | -74.43885 | 34086 ft | 442 kts | 296° |
| 2026-05-03 23:56 | 23.49501 | -74.49675 | 34091 ft | 442 kts | 296° |
| 2026-05-03 23:56 | 23.52594 | -74.55461 | 34090 ft | 442 kts | 296° |
| 2026-05-03 23:57 | 23.55685 | -74.61253 | 34090 ft | 442 kts | 296° |
| 2026-05-03 23:57 | 23.58771 | -74.67039 | 34088 ft | 442 kts | 296° |
| 2026-05-03 23:58 | 23.61854 | -74.72829 | 34087 ft | 442 kts | 296° |
| 2026-05-03 23:58 | 23.64942 | -74.78633 | 34091 ft | 441 kts | 296° |
| 2026-05-03 23:59 | 23.68002 | -74.84392 | 34084 ft | 440 kts | 296° |
| 2026-05-03 23:59 | 23.71055 | -74.90144 | 34086 ft | 439 kts | 296° |
| 2026-05-04 00:00 | 23.74117 | -74.95921 | 34089 ft | 438 kts | 296° |
| 2026-05-04 00:00 | 23.77142 | -75.01634 | 34090 ft | 437 kts | 296° |
| 2026-05-04 00:01 | 23.80195 | -75.07407 | 34093 ft | 437 kts | 295° |
| 2026-05-04 00:01 | 23.83213 | -75.13119 | 34087 ft | 436 kts | 295° |
| 2026-05-04 00:02 | 23.86240 | -75.18857 | 34087 ft | 436 kts | 295° |
| 2026-05-04 00:02 | 23.89274 | -75.24613 | 34087 ft | 435 kts | 295° |
| 2026-05-04 00:03 | 23.92271 | -75.30307 | 34088 ft | 435 kts | 295° |
| 2026-05-04 00:03 | 23.95299 | -75.36066 | 34082 ft | 435 kts | 295° |
| 2026-05-04 00:04 | 23.98302 | -75.41785 | 34085 ft | 435 kts | 295° |
| 2026-05-04 00:04 | 24.01304 | -75.47507 | 34087 ft | 435 kts | 295° |
| 2026-05-04 00:05 | 24.04326 | -75.53275 | 34085 ft | 435 kts | 295° |
| 2026-05-04 00:05 | 24.07327 | -75.59011 | 34085 ft | 435 kts | 295° |
| 2026-05-04 00:06 | 24.10332 | -75.64759 | 34085 ft | 436 kts | 295° |
| 2026-05-04 00:06 | 24.13349 | -75.70538 | 34085 ft | 436 kts | 295° |
| 2026-05-04 00:07 | 24.16353 | -75.76299 | 34085 ft | 436 kts | 295° |
| 2026-05-04 00:07 | 24.19354 | -75.82061 | 34091 ft | 437 kts | 295° |
| 2026-05-04 00:08 | 24.22357 | -75.87834 | 34084 ft | 437 kts | 295° |
| 2026-05-04 00:08 | 24.25359 | -75.93609 | 34085 ft | 436 kts | 295° |
| 2026-05-04 00:09 | 24.28354 | -75.99381 | 34088 ft | 436 kts | 295° |
| 2026-05-04 00:09 | 24.31340 | -76.05142 | 34087 ft | 436 kts | 294° |
| 2026-05-04 00:10 | 24.34333 | -76.10924 | 34084 ft | 436 kts | 294° |
| 2026-05-04 00:10 | 24.37333 | -76.16724 | 34105 ft | 436 kts | 295° |
| 2026-05-04 00:11 | 24.40314 | -76.22497 | 34089 ft | 436 kts | 295° |
| 2026-05-04 00:11 | 24.42818 | -76.27351 | 34081 ft | 435 kts | 295° |
| 2026-05-04 00:12 | 24.45793 | -76.33123 | 34081 ft | 435 kts | 295° |
| 2026-05-04 00:12 | 24.48768 | -76.38902 | 34081 ft | 435 kts | 295° |
| 2026-05-04 00:13 | 24.51738 | -76.44680 | 34082 ft | 434 kts | 295° |
| 2026-05-04 00:13 | 24.54702 | -76.50454 | 34082 ft | 434 kts | 295° |
| 2026-05-04 00:14 | 24.57652 | -76.56205 | 34084 ft | 434 kts | 295° |
| 2026-05-04 00:14 | 24.60609 | -76.61979 | 34082 ft | 434 kts | 295° |
| 2026-05-04 00:15 | 24.63564 | -76.67755 | 34078 ft | 434 kts | 295° |
| 2026-05-04 00:15 | 24.66529 | -76.73557 | 34079 ft | 433 kts | 295° |
| 2026-05-04 00:16 | 24.69483 | -76.79346 | 34080 ft | 433 kts | 295° |
| 2026-05-04 00:16 | 24.72415 | -76.85098 | 34079 ft | 433 kts | 295° |
| 2026-05-04 00:17 | 24.75373 | -76.90909 | 34100 ft | 433 kts | 294° |
| 2026-05-04 00:17 | 24.78308 | -76.96682 | 34076 ft | 433 kts | 294° |
| 2026-05-04 00:18 | 24.81247 | -77.02468 | 34070 ft | 432 kts | 294° |
| 2026-05-04 00:18 | 24.84172 | -77.08234 | 34074 ft | 432 kts | 294° |
| 2026-05-04 00:19 | 24.87082 | -77.13979 | 34070 ft | 431 kts | 294° |
| 2026-05-04 00:19 | 24.90012 | -77.19771 | 34071 ft | 431 kts | 294° |
| 2026-05-04 00:20 | 24.92916 | -77.25519 | 34078 ft | 431 kts | 294° |
| 2026-05-04 00:20 | 24.95831 | -77.31294 | 34076 ft | 431 kts | 294° |
| 2026-05-04 00:21 | 24.98751 | -77.37088 | 34078 ft | 432 kts | 294° |
| 2026-05-04 00:21 | 25.01677 | -77.42900 | 34079 ft | 432 kts | 294° |
| 2026-05-04 00:22 | 25.04318 | -77.48814 | 34080 ft | 429 kts | 288° |
| 2026-05-04 00:22 | 25.06523 | -77.54904 | 34083 ft | 428 kts | 287° |
| 2026-05-04 00:23 | 25.08708 | -77.60983 | 34087 ft | 429 kts | 288° |
| 2026-05-04 00:23 | 25.10971 | -77.67120 | 34076 ft | 430 kts | 288° |
| 2026-05-04 00:24 | 25.13238 | -77.73200 | 34093 ft | 430 kts | 288° |
| 2026-05-04 00:24 | 25.15509 | -77.79287 | 34073 ft | 429 kts | 288° |
| 2026-05-04 00:25 | 25.17782 | -77.85391 | 34055 ft | 428 kts | 288° |
| 2026-05-04 00:25 | 25.20023 | -77.91423 | 34057 ft | 427 kts | 288° |
| 2026-05-04 00:26 | 25.22276 | -77.97494 | 34065 ft | 426 kts | 287° |
| 2026-05-04 00:26 | 25.24519 | -78.03551 | 34064 ft | 425 kts | 287° |
| 2026-05-04 00:27 | 25.26763 | -78.09617 | 34062 ft | 425 kts | 287° |
| 2026-05-04 00:27 | 25.28984 | -78.15631 | 34063 ft | 424 kts | 287° |
| 2026-05-04 00:28 | 25.31258 | -78.21670 | 34061 ft | 425 kts | 289° |
| 2026-05-04 00:28 | 25.33672 | -78.27633 | 34057 ft | 425 kts | 289° |
| 2026-05-04 00:29 | 25.36085 | -78.33594 | 34058 ft | 425 kts | 289° |
| 2026-05-04 00:29 | 25.38473 | -78.39558 | 34058 ft | 425 kts | 289° |
| 2026-05-04 00:30 | 25.40860 | -78.45540 | 34058 ft | 425 kts | 289° |
| 2026-05-04 00:30 | 25.43207 | -78.51580 | 34058 ft | 425 kts | 288° |
| 2026-05-04 00:31 | 25.45502 | -78.57591 | 34061 ft | 426 kts | 288° |
| 2026-05-04 00:31 | 25.47816 | -78.63641 | 34061 ft | 426 kts | 288° |
| 2026-05-04 00:32 | 25.50121 | -78.69660 | 34069 ft | 426 kts | 288° |
| 2026-05-04 00:32 | 25.52425 | -78.75681 | 34074 ft | 425 kts | 287° |
| 2026-05-04 00:33 | 25.55865 | -78.84691 | 34053 ft | 420 kts | 287° |
| 2026-05-04 00:34 | 25.58125 | -78.90621 | 34054 ft | 418 kts | 287° |
| 2026-05-04 00:34 | 25.60373 | -78.96533 | 34059 ft | 416 kts | 287° |
| 2026-05-04 00:35 | 25.62616 | -79.02434 | 34060 ft | 415 kts | 287° |
| 2026-05-04 00:35 | 25.64845 | -79.08338 | 34068 ft | 414 kts | 286° |
| 2026-05-04 00:36 | 25.67059 | -79.14243 | 34064 ft | 415 kts | 286° |
| 2026-05-04 00:36 | 25.69242 | -79.20056 | 33936 ft | 397 kts | 286° |
| 2026-05-04 00:36 | 25.70288 | -79.22850 | 33166 ft | 401 kts | 286° |
| 2026-05-04 00:37 | 25.71360 | -79.25727 | 32443 ft | 404 kts | 286° |
| 2026-05-04 00:37 | 25.72440 | -79.28623 | 31663 ft | 409 kts | 287° |
| 2026-05-04 00:37 | 25.73534 | -79.31561 | 30923 ft | 413 kts | 287° |
| 2026-05-04 00:37 | 25.74624 | -79.34524 | 30196 ft | 416 kts | 287° |
| 2026-05-04 00:38 | 25.75719 | -79.37515 | 29355 ft | 419 kts | 287° |
| 2026-05-04 00:38 | 25.76819 | -79.40521 | 28454 ft | 423 kts | 287° |
| 2026-05-04 00:38 | 25.77929 | -79.43557 | 27586 ft | 426 kts | 287° |
| 2026-05-04 00:38 | 25.79034 | -79.46574 | 26741 ft | 428 kts | 287° |
| 2026-05-04 00:39 | 25.80158 | -79.49647 | 25907 ft | 430 kts | 287° |
| 2026-05-04 00:39 | 25.81285 | -79.52727 | 25098 ft | 431 kts | 288° |
| 2026-05-04 00:39 | 25.82412 | -79.55810 | 24312 ft | 432 kts | 288° |
| 2026-05-04 00:39 | 25.83543 | -79.58906 | 23532 ft | 432 kts | 288° |
| 2026-05-04 00:40 | 25.84684 | -79.62003 | 22560 ft | 434 kts | 288° |
| 2026-05-04 00:40 | 25.85857 | -79.65095 | 21640 ft | 435 kts | 290° |
| 2026-05-04 00:40 | 25.87146 | -79.68139 | 21033 ft | 431 kts | 292° |
| 2026-05-04 00:40 | 25.88444 | -79.71062 | 20955 ft | 413 kts | 292° |
| 2026-05-04 00:41 | 25.89692 | -79.73907 | 20288 ft | 411 kts | 291° |
| 2026-05-04 00:41 | 25.90921 | -79.76770 | 19540 ft | 411 kts | 291° |
| 2026-05-04 00:41 | 25.92147 | -79.79655 | 18752 ft | 413 kts | 291° |
| 2026-05-04 00:41 | 25.93376 | -79.82551 | 17918 ft | 415 kts | 291° |
| 2026-05-04 00:42 | 25.94594 | -79.85422 | 17042 ft | 417 kts | 292° |
| 2026-05-04 00:42 | 25.95829 | -79.88326 | 16384 ft | 412 kts | 292° |
| 2026-05-04 00:42 | 25.97054 | -79.91206 | 15754 ft | 408 kts | 292° |
| 2026-05-04 00:42 | 25.98271 | -79.94061 | 15016 ft | 408 kts | 293° |
| 2026-05-04 00:43 | 25.99786 | -79.96720 | 14458 ft | 408 kts | 307° |
| 2026-05-04 00:43 | 26.01706 | -79.99036 | 13772 ft | 408 kts | 310° |
| 2026-05-04 00:43 | 26.03635 | -80.01329 | 13237 ft | 401 kts | 310° |
| 2026-05-04 00:43 | 26.05524 | -80.03603 | 12545 ft | 399 kts | 309° |
| 2026-05-04 00:44 | 26.07385 | -80.05879 | 11981 ft | 394 kts | 309° |
| 2026-05-04 00:44 | 26.09208 | -80.08127 | 11371 ft | 390 kts | 309° |
| 2026-05-04 00:44 | 26.11016 | -80.10365 | 10752 ft | 388 kts | 309° |
| 2026-05-04 00:44 | 26.12813 | -80.12591 | 10218 ft | 383 kts | 309° |
| 2026-05-04 00:45 | 26.14296 | -80.14973 | 9611 ft | 376 kts | 291° |
| 2026-05-04 00:45 | 26.15012 | -80.17756 | 9118 ft | 367 kts | 278° |
| 2026-05-04 00:45 | 26.15156 | -80.20548 | 8464 ft | 365 kts | 269° |
| 2026-05-04 00:45 | 26.15126 | -80.23382 | 7783 ft | 365 kts | 268° |
| 2026-05-04 00:46 | 26.15093 | -80.26203 | 7203 ft | 363 kts | 269° |
| 2026-05-04 00:46 | 26.15081 | -80.29002 | 6615 ft | 361 kts | 269° |
| 2026-05-04 00:46 | 26.15086 | -80.31782 | 6008 ft | 359 kts | 269° |
| 2026-05-04 00:46 | 26.15097 | -80.34560 | 5415 ft | 357 kts | 269° |
| 2026-05-04 00:47 | 26.15072 | -80.37298 | 5176 ft | 352 kts | 268° |
| 2026-05-04 00:47 | 26.14998 | -80.39975 | 5049 ft | 338 kts | 267° |
| 2026-05-04 00:47 | 26.14909 | -80.42529 | 5013 ft | 322 kts | 267° |
| 2026-05-04 00:47 | 26.14817 | -80.44954 | 4994 ft | 306 kts | 267° |
| 2026-05-04 00:48 | 26.14728 | -80.47268 | 4992 ft | 291 kts | 267° |
| 2026-05-04 00:48 | 26.14643 | -80.49467 | 4992 ft | 278 kts | 267° |
| 2026-05-04 00:48 | 26.14563 | -80.51563 | 4990 ft | 265 kts | 266° |
| 2026-05-04 00:48 | 26.14480 | -80.53566 | 4991 ft | 252 kts | 266° |
| 2026-05-04 00:49 | 26.14445 | -80.55469 | 4987 ft | 240 kts | 271° |
| 2026-05-04 00:49 | 26.14469 | -80.57278 | 4989 ft | 228 kts | 270° |
| 2026-05-04 00:49 | 26.14447 | -80.58992 | 4988 ft | 217 kts | 261° |
| 2026-05-04 00:49 | 26.13765 | -80.60419 | 5009 ft | 217 kts | 220° |
| 2026-05-04 00:50 | 26.12342 | -80.61000 | 5017 ft | 228 kts | 180° |
| 2026-05-04 00:50 | 26.10839 | -80.60400 | 5016 ft | 240 kts | 140° |
| 2026-05-04 00:50 | 26.09866 | -80.58887 | 5026 ft | 246 kts | 114° |
| 2026-05-04 00:50 | 26.09275 | -80.57104 | 5015 ft | 245 kts | 109° |
| 2026-05-04 00:51 | 26.08739 | -80.55316 | 4998 ft | 242 kts | 109° |
| 2026-05-04 00:51 | 26.08219 | -80.53551 | 4915 ft | 237 kts | 110° |
| 2026-05-04 00:51 | 26.07723 | -80.51798 | 4668 ft | 238 kts | 109° |
| 2026-05-04 00:51 | 26.07240 | -80.50036 | 4407 ft | 238 kts | 104° |
| 2026-05-04 00:52 | 26.07156 | -80.48209 | 4175 ft | 237 kts | 86° |
| 2026-05-04 00:52 | 26.07253 | -80.46375 | 4067 ft | 238 kts | 88° |
| 2026-05-04 00:52 | 26.07339 | -80.44546 | 4013 ft | 236 kts | 88° |
| 2026-05-04 00:52 | 26.07421 | -80.42739 | 4012 ft | 232 kts | 88° |
| 2026-05-04 00:53 | 26.07502 | -80.40947 | 4007 ft | 231 kts | 88° |
| 2026-05-04 00:53 | 26.07583 | -80.39152 | 4014 ft | 234 kts | 88° |
| 2026-05-04 00:53 | 26.07666 | -80.37357 | 4021 ft | 235 kts | 87° |
| 2026-05-04 00:53 | 26.07775 | -80.35575 | 3993 ft | 225 kts | 88° |
| 2026-05-04 00:54 | 26.07806 | -80.33898 | 3993 ft | 209 kts | 91° |
| 2026-05-04 00:54 | 26.07798 | -80.32276 | 4035 ft | 211 kts | 91° |
| 2026-05-04 00:54 | 26.07785 | -80.30646 | 4022 ft | 210 kts | 91° |
| 2026-05-04 00:54 | 26.07773 | -80.29051 | 4031 ft | 203 kts | 91° |
| 2026-05-04 00:55 | 26.07763 | -80.27490 | 4013 ft | 202 kts | 91° |
| 2026-05-04 00:55 | 26.07752 | -80.25906 | 3814 ft | 212 kts | 91° |
| 2026-05-04 00:55 | 26.07745 | -80.24261 | 3380 ft | 211 kts | 91° |
| 2026-05-04 00:55 | 26.07727 | -80.22586 | 2974 ft | 223 kts | 94° |
| 2026-05-04 00:56 | 26.07622 | -80.20769 | 2072 ft | 249 kts | 92° |
| 2026-05-04 00:56 | 26.07666 | -80.18773 | 1013 ft | 263 kts | 86° |
| 2026-05-04 00:56 | 26.07715 | -80.16799 | 237 ft | 251 kts | 89° |